Time,TemperatureF,DewpointF,PressureIn,WindDirection,WindDirectionDegrees,WindSpeedMPH,WindSpeedGustMPH,Humidity,HourlyPrecipIn,Conditions,Clouds,dailyrainin,SoftwareType,DateUTC
2013-03-29 00:00:00,35.6,30.9,30.25,West,281,0.0,0.0,83,0.00,CLR,,0.00,WeatherDisplay:10.37,2013-03-29 05:00:00,
2013-03-29 00:05:00,35.6,31.2,30.25,West,281,2.3,0.0,84,0.00,CLR,,0.00,WeatherDisplay:10.37,2013-03-29 05:05:00,
2013-03-29 00:10:00,35.6,31.2,30.25,West,281,0.0,0.0,84,0.00,CLR,,0.00,WeatherDisplay:10.37,2013-03-29 05:10:00,
2013-03-29 00:15:00,35.6,31.2,30.25,West,281,0.0,0.0,84,0.00,CLR,,0.00,WeatherDisplay:10.37,2013-03-29 05:15:00,
2013-03-29 00:20:00,35.5,31.1,30.25,West,281,0.0,0.0,84,0.00,CLR,,0.00,WeatherDisplay:10.37,2013-03-29 05:20:00,
2013-03-29 00:26:00,35.6,31.2,30.25,West,281,2.0,2.0,84,0.00,CLR,,0.00,WeatherDisplay:10.37,2013-03-29 05:26:00,
2013-03-29 00:31:00,35.6,31.2,30.25,West,281,2.3,0.0,84,0.00,CLR,,0.00,WeatherDisplay:10.37,2013-03-29 05:31:00,
2013-03-29 00:36:00,35.7,31.0,30.25,West,281,0.0,0.0,83,0.00,CLR,,0.00,WeatherDisplay:10.37,2013-03-29 05:36:00,
2013-03-29 00:41:00,35.7,31.0,30.25,West,281,0.0,0.0,83,0.00,CLR,,0.00,WeatherDisplay:10.37,2013-03-29 05:41:00,
2013-03-29 00:46:00,35.9,31.2,30.25,West,281,2.3,2.3,83,0.00,CLR,,0.00,WeatherDisplay:10.37,2013-03-29 05:46:00,
2013-03-29 00:51:00,36.0,31.0,30.25,West,281,2.3,2.3,82,0.00,CLR,,0.00,WeatherDisplay:10.37,2013-03-29 05:51:00,
2013-03-29 00:56:00,36.2,31.2,30.25,West,281,0.0,0.0,82,0.00,CLR,,0.00,WeatherDisplay:10.37,2013-03-29 05:56:00,
2013-03-29 01:01:00,36.2,31.2,30.25,West,281,0.0,0.0,82,0.00,CLR,,0.00,WeatherDisplay:10.37,2013-03-29 06:01:00,
2013-03-29 01:06:00,36.2,31.2,30.25,West,281,0.0,0.0,82,0.00,CLR,,0.00,WeatherDisplay:10.37,2013-03-29 06:06:00,
2013-03-29 01:12:00,36.1,31.1,30.25,West,281,0.0,0.0,82,0.00,CLR,,0.00,WeatherDisplay:10.37,2013-03-29 06:12:00,
2013-03-29 01:17:00,36.1,31.1,30.25,West,281,0.0,0.0,82,0.00,CLR,,0.00,WeatherDisplay:10.37,2013-03-29 06:17:00,
2013-03-29 01:22:00,36.0,31.0,30.25,West,281,0.0,0.0,82,0.00,CLR,,0.00,WeatherDisplay:10.37,2013-03-29 06:22:00,
2013-03-29 01:27:00,35.9,30.9,30.25,West,281,0.0,0.0,82,0.00,CLR,,0.00,WeatherDisplay:10.37,2013-03-29 06:27:00,
2013-03-29 01:32:00,35.8,30.8,30.25,West,281,0.0,0.0,82,0.00,CLR,,0.00,WeatherDisplay:10.37,2013-03-29 06:32:00,
2013-03-29 01:37:00,35.6,30.9,30.25,West,281,0.0,0.0,83,0.00,CLR,,0.00,WeatherDisplay:10.37,2013-03-29 06:37:00,
2013-03-29 01:42:00,35.5,30.8,30.25,West,281,0.0,0.0,83,0.00,CLR,,0.00,WeatherDisplay:10.37,2013-03-29 06:42:00,
2013-03-29 01:47:00,35.5,31.1,30.25,West,281,1.0,1.0,84,0.00,CLR,,0.00,WeatherDisplay:10.37,2013-03-29 06:47:00,
2013-03-29 01:52:00,35.6,31.2,30.25,West,281,3.5,3.5,84,0.00,CLR,,0.00,WeatherDisplay:10.37,2013-03-29 06:52:00,
2013-03-29 01:57:00,35.8,31.4,30.25,West,281,3.5,3.5,84,0.00,CLR,,0.00,WeatherDisplay:10.37,2013-03-29 06:57:00,
2013-03-29 02:02:00,35.8,31.4,30.24,West,281,2.3,0.0,84,0.00,CLR,,0.00,WeatherDisplay:10.37,2013-03-29 07:02:00,
2013-03-29 02:07:00,35.9,31.5,30.24,West,281,0.0,0.0,84,0.00,CLR,,0.00,WeatherDisplay:10.37,2013-03-29 07:07:00,
2013-03-29 02:12:00,36.0,31.3,30.24,West,281,1.2,0.0,83,0.00,CLR,,0.00,WeatherDisplay:10.37,2013-03-29 07:12:00,
2013-03-29 02:17:00,36.1,31.4,30.25,West,281,2.3,2.3,83,0.00,CLR,,0.00,WeatherDisplay:10.37,2013-03-29 07:17:00,
2013-03-29 02:22:00,36.1,31.4,30.25,West,281,3.0,3.0,83,0.00,CLR,,0.00,WeatherDisplay:10.37,2013-03-29 07:22:00,
2013-03-29 02:27:00,36.0,31.3,30.24,West,281,0.0,0.0,83,0.00,CLR,,0.00,WeatherDisplay:10.37,2013-03-29 07:27:00,
2013-03-29 02:33:00,36.2,31.2,30.24,West,281,0.0,0.0,82,0.00,CLR,,0.00,WeatherDisplay:10.37,2013-03-29 07:33:00,
2013-03-29 02:38:00,36.3,31.3,30.24,West,281,0.0,0.0,82,0.00,CLR,,0.00,WeatherDisplay:10.37,2013-03-29 07:38:00,
2013-03-29 02:43:00,36.3,31.3,30.23,West,281,0.0,0.0,82,0.00,CLR,,0.00,WeatherDisplay:10.37,2013-03-29 07:43:00,
2013-03-29 02:48:00,36.2,31.2,30.23,West,281,0.0,0.0,82,0.00,CLR,,0.00,WeatherDisplay:10.37,2013-03-29 07:48:00,
2013-03-29 02:53:00,36.1,31.1,30.23,West,281,0.0,0.0,82,0.00,CLR,,0.00,WeatherDisplay:10.37,2013-03-29 07:53:00,
2013-03-29 02:58:00,35.9,31.2,30.23,West,281,2.3,2.3,83,0.00,CLR,,0.00,WeatherDisplay:10.37,2013-03-29 07:58:00,
2013-03-29 03:03:00,35.8,31.1,30.22,West,281,2.3,2.3,83,0.00,CLR,,0.00,WeatherDisplay:10.37,2013-03-29 08:03:00,
2013-03-29 03:08:00,35.7,31.0,30.23,West,281,0.0,0.0,83,0.00,CLR,,0.00,WeatherDisplay:10.37,2013-03-29 08:08:00,
2013-03-29 03:13:00,35.6,31.2,30.23,West,281,0.0,0.0,84,0.00,CLR,,0.00,WeatherDisplay:10.37,2013-03-29 08:13:00,
2013-03-29 03:18:00,35.6,31.2,30.23,West,281,0.0,0.0,84,0.00,CLR,,0.00,WeatherDisplay:10.37,2013-03-29 08:18:00,
2013-03-29 03:23:00,35.7,31.0,30.23,West,281,3.5,3.5,83,0.00,CLR,,0.00,WeatherDisplay:10.37,2013-03-29 08:23:00,
2013-03-29 03:28:00,36.0,31.0,30.23,West,281,1.2,1.2,82,0.00,CLR,,0.00,WeatherDisplay:10.37,2013-03-29 08:28:00,
2013-03-29 03:33:00,36.2,31.2,30.23,West,281,0.0,0.0,82,0.00,CLR,,0.00,WeatherDisplay:10.37,2013-03-29 08:33:00,
2013-03-29 03:38:00,36.3,31.6,30.23,West,281,0.0,0.0,83,0.00,CLR,,0.00,WeatherDisplay:10.37,2013-03-29 08:38:00,
2013-03-29 03:43:00,36.4,31.7,30.23,West,281,0.0,0.0,83,0.00,CLR,,0.00,WeatherDisplay:10.37,2013-03-29 08:43:00,
2013-03-29 03:48:00,36.4,32.0,30.23,West,281,0.0,0.0,84,0.00,CLR,,0.00,WeatherDisplay:10.37,2013-03-29 08:48:00,
2013-03-29 03:53:00,36.3,31.9,30.23,West,281,2.3,2.3,84,0.00,CLR,,0.00,WeatherDisplay:10.37,2013-03-29 08:53:00,
2013-03-29 03:58:00,36.3,31.6,30.23,West,281,3.5,3.5,83,0.00,CLR,,0.00,WeatherDisplay:10.37,2013-03-29 08:58:00,
2013-03-29 04:03:00,36.3,31.0,30.23,West,281,3.5,3.5,81,0.00,CLR,,0.00,WeatherDisplay:10.37,2013-03-29 09:03:00,
2013-03-29 04:08:00,36.4,31.1,30.23,West,281,0.0,0.1,81,0.00,CLR,,0.00,WeatherDisplay:10.37,2013-03-29 09:08:00,
2013-03-29 04:13:00,36.5,30.9,30.23,West,281,4.0,4.0,80,0.00,CLR,,0.00,WeatherDisplay:10.37,2013-03-29 09:13:00,
2013-03-29 04:18:00,36.5,30.6,30.23,WNW,285,4.6,4.6,79,0.00,CLR,,0.00,WeatherDisplay:10.37,2013-03-29 09:18:00,
2013-03-29 04:23:00,36.4,30.2,30.23,WNW,297,4.6,4.6,78,0.00,CLR,,0.00,WeatherDisplay:10.37,2013-03-29 09:23:00,
2013-03-29 04:28:00,36.4,30.2,30.23,WNW,300,4.6,4.6,78,0.00,CLR,,0.00,WeatherDisplay:10.37,2013-03-29 09:28:00,
2013-03-29 04:33:00,36.5,30.3,30.23,WNW,300,2.3,2.3,78,0.00,CLR,,0.00,WeatherDisplay:10.37,2013-03-29 09:33:00,
2013-03-29 04:38:00,36.6,30.7,30.23,WNW,300,3.5,3.5,79,0.00,CLR,,0.00,WeatherDisplay:10.37,2013-03-29 09:38:00,
2013-03-29 04:43:00,36.4,30.5,30.23,WNW,299,3.5,3.5,79,0.00,CLR,,0.00,WeatherDisplay:10.37,2013-03-29 09:43:00,
2013-03-29 04:48:00,36.3,30.1,30.23,WNW,300,3.5,3.5,78,0.00,CLR,,0.00,WeatherDisplay:10.37,2013-03-29 09:48:00,
2013-03-29 04:53:00,36.2,30.3,30.23,WNW,299,2.3,2.3,79,0.00,CLR,,0.00,WeatherDisplay:10.37,2013-03-29 09:53:00,
2013-03-29 04:58:00,36.0,30.1,30.22,WNW,299,3.5,3.5,79,0.00,CLR,,0.00,WeatherDisplay:10.37,2013-03-29 09:58:00,
2013-03-29 05:03:00,35.9,30.0,30.22,WNW,300,3.5,3.5,79,0.00,CLR,,0.00,WeatherDisplay:10.37,2013-03-29 10:03:00,
2013-03-29 05:08:00,35.8,29.9,30.22,NW,311,4.0,4.0,79,0.00,CLR,,0.00,WeatherDisplay:10.37,2013-03-29 10:08:00,
2013-03-29 05:14:00,35.9,30.0,30.22,NNW,327,3.5,3.5,79,0.00,CLR,,0.00,WeatherDisplay:10.37,2013-03-29 10:14:00,
2013-03-29 05:19:00,35.7,30.1,30.22,NNW,327,2.3,2.3,80,0.00,CLR,,0.00,WeatherDisplay:10.37,2013-03-29 10:19:00,
2013-03-29 05:24:00,35.5,30.2,30.22,NNW,327,2.3,2.3,81,0.00,CLR,,0.00,WeatherDisplay:10.37,2013-03-29 10:24:00,
2013-03-29 05:29:00,35.5,29.9,30.22,NNW,328,2.0,2.0,80,0.00,CLR,,0.00,WeatherDisplay:10.37,2013-03-29 10:29:00,
2013-03-29 05:34:00,35.5,29.9,30.22,NNW,328,0.0,0.0,80,0.00,CLR,,0.00,WeatherDisplay:10.37,2013-03-29 10:34:00,
2013-03-29 05:39:00,35.6,30.3,30.23,NNW,327,3.5,3.5,81,0.00,CLR,,0.00,WeatherDisplay:10.37,2013-03-29 10:39:00,
2013-03-29 05:44:00,35.3,30.4,30.22,NNW,327,2.3,2.3,82,0.00,CLR,,0.00,WeatherDisplay:10.37,2013-03-29 10:44:00,
2013-03-29 05:49:00,35.2,30.3,30.23,NNW,328,1.0,1.0,82,0.00,CLR,,0.00,WeatherDisplay:10.37,2013-03-29 10:49:00,
2013-03-29 05:54:00,35.2,30.3,30.23,NNW,328,1.2,0.0,82,0.00,CLR,,0.00,WeatherDisplay:10.37,2013-03-29 10:54:00,
2013-03-29 05:59:00,35.4,29.8,30.23,NNW,328,3.5,3.5,80,0.00,CLR,,0.00,WeatherDisplay:10.37,2013-03-29 10:59:00,
2013-03-29 06:04:00,35.7,29.8,30.23,NNW,328,3.5,3.5,79,0.00,CLR,,0.00,WeatherDisplay:10.37,2013-03-29 11:04:00,
2013-03-29 06:09:00,35.7,29.8,30.23,NNW,327,2.3,2.3,79,0.00,CLR,,0.00,WeatherDisplay:10.37,2013-03-29 11:09:00,
2013-03-29 06:14:00,35.9,30.0,30.23,NNW,328,2.3,2.3,79,0.00,CLR,,0.00,WeatherDisplay:10.37,2013-03-29 11:14:00,
2013-03-29 06:19:00,35.9,30.0,30.23,NNW,327,1.2,1.2,79,0.00,CLR,,0.00,WeatherDisplay:10.37,2013-03-29 11:19:00,
2013-03-29 06:24:00,35.9,29.7,30.23,NNW,328,3.5,3.5,78,0.00,CLR,,0.00,WeatherDisplay:10.37,2013-03-29 11:24:00,
2013-03-29 06:29:00,36.1,29.9,30.23,NNW,327,2.3,2.3,78,0.00,CLR,,0.00,WeatherDisplay:10.37,2013-03-29 11:29:00,
2013-03-29 06:34:00,36.2,30.0,30.23,NNW,328,3.5,3.5,78,0.00,CLR,,0.00,WeatherDisplay:10.37,2013-03-29 11:34:00,
2013-03-29 06:39:00,36.4,30.5,30.23,NNW,327,2.3,2.3,79,0.00,CLR,,0.00,WeatherDisplay:10.37,2013-03-29 11:39:00,
2013-03-29 06:44:00,36.5,30.3,30.24,NNW,328,0.0,0.0,78,0.00,CLR,,0.00,WeatherDisplay:10.37,2013-03-29 11:44:00,
2013-03-29 06:49:00,36.7,30.5,30.24,NNW,328,2.3,2.3,78,0.00,CLR,,0.00,WeatherDisplay:10.37,2013-03-29 11:49:00,
2013-03-29 06:54:00,36.7,30.5,30.24,NNW,328,2.3,2.3,78,0.00,CLR,,0.00,WeatherDisplay:10.37,2013-03-29 11:54:00,
2013-03-29 06:59:00,36.6,30.4,30.24,NNW,328,2.3,2.3,78,0.00,CLR,,0.00,WeatherDisplay:10.37,2013-03-29 11:59:00,
2013-03-29 07:04:00,36.5,30.6,30.24,NNW,333,4.6,4.6,79,0.00,CLR,,0.00,WeatherDisplay:10.37,2013-03-29 12:04:00,
2013-03-29 07:09:00,36.4,30.2,30.24,NNE,23,4.6,4.6,78,0.00,CLR,,0.00,WeatherDisplay:10.37,2013-03-29 12:09:00,
2013-03-29 07:14:00,36.2,30.3,30.24,NNE,24,2.3,2.3,79,0.00,CLR,,0.00,WeatherDisplay:10.37,2013-03-29 12:14:00,
2013-03-29 07:19:00,36.2,30.3,30.24,NNE,25,3.5,3.5,79,0.00,CLR,,0.00,WeatherDisplay:10.37,2013-03-29 12:19:00,
2013-03-29 07:24:00,36.2,30.3,30.24,ESE,122,5.8,5.8,79,0.00,CLR,,0.00,WeatherDisplay:10.37,2013-03-29 12:24:00,
2013-03-29 07:29:00,36.1,30.2,30.24,SE,128,4.6,4.6,79,0.00,CLR,,0.00,WeatherDisplay:10.37,2013-03-29 12:29:00,
2013-03-29 07:34:00,36.1,30.5,30.25,SE,128,3.5,3.5,80,0.00,CLR,,0.00,WeatherDisplay:10.37,2013-03-29 12:34:00,
2013-03-29 07:39:00,36.1,30.5,30.25,SE,128,3.5,3.5,80,0.00,CLR,,0.00,WeatherDisplay:10.37,2013-03-29 12:39:00,
2013-03-29 07:44:00,36.4,30.5,30.25,SE,128,4.0,4.0,79,0.00,CLR,,0.00,WeatherDisplay:10.37,2013-03-29 12:44:00,
2013-03-29 07:49:00,36.6,30.7,30.25,SE,128,2.3,2.3,79,0.00,CLR,,0.00,WeatherDisplay:10.37,2013-03-29 12:49:00,
2013-03-29 07:54:00,36.9,30.7,30.25,SE,129,3.5,3.5,78,0.00,CLR,,0.00,WeatherDisplay:10.37,2013-03-29 12:54:00,
2013-03-29 07:59:00,37.3,31.1,30.25,SE,129,3.5,3.5,78,0.00,CLR,,0.00,WeatherDisplay:10.37,2013-03-29 12:59:00,
2013-03-29 08:04:00,37.7,31.5,30.25,SE,128,2.3,2.3,78,0.00,CLR,,0.00,WeatherDisplay:10.37,2013-03-29 13:04:00,
2013-03-29 08:09:00,38.1,31.5,30.25,SE,128,3.5,3.5,77,0.00,CLR,,0.00,WeatherDisplay:10.37,2013-03-29 13:09:00,
2013-03-29 08:14:00,38.4,31.5,30.25,SE,129,3.5,3.5,76,0.00,CLR,,0.00,WeatherDisplay:10.37,2013-03-29 13:14:00,
2013-03-29 08:19:00,38.8,31.6,30.25,SE,129,3.5,3.5,75,0.00,CLR,,0.00,WeatherDisplay:10.37,2013-03-29 13:19:00,
2013-03-29 08:24:00,39.1,31.8,30.25,SE,129,3.5,3.5,75,0.00,CLR,,0.00,WeatherDisplay:10.37,2013-03-29 13:24:00,
2013-03-29 08:29:00,39.3,31.7,30.26,SE,127,4.6,4.6,74,0.00,CLR,,0.00,WeatherDisplay:10.37,2013-03-29 13:29:00,
2013-03-29 08:34:00,39.6,31.7,30.26,SE,126,3.5,3.5,73,0.00,CLR,,0.00,WeatherDisplay:10.37,2013-03-29 13:34:00,
2013-03-29 08:40:00,39.8,31.5,30.26,SE,126,2.3,2.3,72,0.00,CLR,,0.00,WeatherDisplay:10.37,2013-03-29 13:40:00,
2013-03-29 08:45:00,40.2,31.9,30.26,SE,126,0.0,0.0,72,0.00,CLR,,0.00,WeatherDisplay:10.37,2013-03-29 13:45:00,
2013-03-29 08:50:00,40.8,32.1,30.26,SE,126,1.2,1.2,71,0.00,CLR,,0.00,WeatherDisplay:10.37,2013-03-29 13:50:00,
2013-03-29 08:55:00,41.3,32.2,30.26,SE,126,1.2,1.2,70,0.00,CLR,,0.00,WeatherDisplay:10.37,2013-03-29 13:55:00,
2013-03-29 09:00:00,41.6,32.2,30.26,SE,127,2.3,2.3,69,0.00,CLR,,0.00,WeatherDisplay:10.37,2013-03-29 14:00:00,
2013-03-29 09:05:00,41.9,32.5,30.25,SE,126,3.5,3.5,69,0.00,CLR,,0.00,WeatherDisplay:10.37,2013-03-29 14:05:00,
2013-03-29 09:10:00,42.1,32.3,30.25,SE,126,2.0,5.0,68,0.00,CLR,,0.00,WeatherDisplay:10.37,2013-03-29 14:10:00,
2013-03-29 09:15:00,42.5,32.7,30.25,SE,124,3.5,3.5,68,0.00,CLR,,0.00,WeatherDisplay:10.37,2013-03-29 14:15:00,
2013-03-29 09:20:00,43.1,33.3,30.26,SE,125,3.5,3.5,68,0.00,CLR,,0.00,WeatherDisplay:10.37,2013-03-29 14:20:00,
2013-03-29 09:25:00,43.8,33.6,30.25,SE,125,2.3,2.3,67,0.00,CLR,,0.00,WeatherDisplay:10.37,2013-03-29 14:25:00,
2013-03-29 09:30:00,44.3,33.7,30.25,SE,125,4.0,4.0,66,0.00,CLR,,0.00,WeatherDisplay:10.37,2013-03-29 14:30:00,
2013-03-29 09:35:00,44.5,33.8,30.25,SE,125,3.5,3.5,66,0.00,CLR,,0.00,WeatherDisplay:10.37,2013-03-29 14:35:00,
2013-03-29 09:40:00,44.6,33.2,30.25,SE,130,6.9,6.9,64,0.00,CLR,,0.00,WeatherDisplay:10.37,2013-03-29 14:40:00,
2013-03-29 09:45:00,44.4,33.0,30.25,SE,131,4.6,4.6,64,0.00,CLR,,0.00,WeatherDisplay:10.37,2013-03-29 14:45:00,
2013-03-29 09:50:00,45.0,33.9,30.25,SE,129,3.5,3.5,65,0.00,CLR,,0.00,WeatherDisplay:10.37,2013-03-29 14:50:00,
2013-03-29 09:55:00,45.6,34.1,30.25,ESE,117,3.5,3.5,64,0.00,CLR,,0.00,WeatherDisplay:10.37,2013-03-29 14:55:00,
2013-03-29 10:00:00,45.9,33.6,30.25,ESE,121,4.6,4.6,62,0.00,CLR,,0.00,WeatherDisplay:10.37,2013-03-29 15:00:00,
2013-03-29 10:05:00,46.1,34.2,30.25,ESE,121,5.8,5.8,63,0.00,CLR,,0.00,WeatherDisplay:10.37,2013-03-29 15:05:00,
2013-03-29 10:10:00,46.0,33.3,30.25,ESE,117,6.9,6.9,61,0.00,CLR,,0.00,WeatherDisplay:10.37,2013-03-29 15:10:00,
2013-03-29 10:15:00,46.2,33.9,30.26,ESE,113,5.8,5.8,62,0.00,CLR,,0.00,WeatherDisplay:10.37,2013-03-29 15:15:00,
2013-03-29 10:20:00,46.4,33.3,30.25,SE,125,10.4,10.4,60,0.00,CLR,,0.00,WeatherDisplay:10.37,2013-03-29 15:20:00,
2013-03-29 10:25:00,46.0,32.9,30.25,SE,146,6.9,6.9,60,0.00,CLR,,0.00,WeatherDisplay:10.37,2013-03-29 15:25:00,
2013-03-29 10:30:00,45.9,32.8,30.25,SE,144,9.2,9.2,60,0.00,CLR,,0.00,WeatherDisplay:10.37,2013-03-29 15:30:00,
2013-03-29 10:35:00,46.2,33.1,30.25,SE,143,5.8,5.8,60,0.00,CLR,,0.00,WeatherDisplay:10.37,2013-03-29 15:35:00,
2013-03-29 10:40:00,46.6,33.0,30.25,SE,140,3.5,3.5,59,0.00,CLR,,0.00,WeatherDisplay:10.37,2013-03-29 15:40:00,
2013-03-29 10:45:00,47.1,33.9,30.25,SE,135,4.6,4.6,60,0.00,CLR,,0.00,WeatherDisplay:10.37,2013-03-29 15:45:00,
2013-03-29 10:50:00,48.0,33.5,30.25,SE,134,3.5,3.5,57,0.00,CLR,,0.00,WeatherDisplay:10.37,2013-03-29 15:50:00,
2013-03-29 10:55:00,48.4,33.4,30.25,SE,132,6.0,6.0,56,0.00,CLR,,0.00,WeatherDisplay:10.37,2013-03-29 15:55:00,
2013-03-29 11:00:00,48.2,33.2,30.25,SE,127,6.0,6.0,56,0.00,CLR,,0.00,WeatherDisplay:10.37,2013-03-29 16:00:00,
2013-03-29 11:05:00,47.7,33.6,30.25,SE,127,4.0,4.0,58,0.00,CLR,,0.00,WeatherDisplay:10.37,2013-03-29 16:05:00,
2013-03-29 11:10:00,47.4,33.8,30.25,SE,133,6.9,6.9,59,0.00,CLR,,0.00,WeatherDisplay:10.37,2013-03-29 16:10:00,
2013-03-29 11:15:00,47.4,33.8,30.25,SSE,153,7.0,7.0,59,0.00,CLR,,0.00,WeatherDisplay:10.37,2013-03-29 16:15:00,
2013-03-29 11:20:00,47.9,34.7,30.25,SSE,162,5.8,5.8,60,0.00,CLR,,0.00,WeatherDisplay:10.37,2013-03-29 16:20:00,
2013-03-29 11:25:00,48.2,33.2,30.25,ESE,109,8.1,8.1,56,0.00,CLR,,0.00,WeatherDisplay:10.37,2013-03-29 16:25:00,
2013-03-29 11:30:00,48.6,34.5,30.25,SE,139,6.0,6.0,58,0.00,CLR,,0.00,WeatherDisplay:10.37,2013-03-29 16:30:00,
2013-03-29 11:35:00,49.5,33.1,30.24,ESE,103,3.5,3.5,53,0.00,CLR,,0.00,WeatherDisplay:10.37,2013-03-29 16:35:00,
2013-03-29 11:40:00,49.9,32.0,30.24,East,80,9.2,9.2,50,0.00,CLR,,0.00,WeatherDisplay:10.37,2013-03-29 16:40:00,
2013-03-29 11:45:00,49.2,32.3,30.24,ENE,67,6.9,6.9,52,0.00,CLR,,0.00,WeatherDisplay:10.37,2013-03-29 16:45:00,
2013-03-29 11:50:00,49.1,32.7,30.24,ENE,68,6.0,6.0,53,0.00,CLR,,0.00,WeatherDisplay:10.37,2013-03-29 16:50:00,
2013-03-29 11:55:00,49.1,31.7,30.24,ESE,110,8.1,8.1,51,0.00,CLR,,0.00,WeatherDisplay:10.37,2013-03-29 16:55:00,
2013-03-29 12:00:00,49.5,32.1,30.24,East,93,4.6,4.6,51,0.00,CLR,,0.00,WeatherDisplay:10.37,2013-03-29 17:00:00,
2013-03-29 12:05:00,50.0,32.1,30.24,East,94,3.5,3.5,50,0.00,CLR,,0.00,WeatherDisplay:10.37,2013-03-29 17:05:00,
2013-03-29 12:10:00,50.4,32.4,30.24,East,94,5.0,5.0,50,0.00,CLR,,0.00,WeatherDisplay:10.37,2013-03-29 17:10:00,
2013-03-29 12:15:00,50.7,32.2,30.24,East,90,3.5,3.5,49,0.00,CLR,,0.00,WeatherDisplay:10.37,2013-03-29 17:15:00,
2013-03-29 12:20:00,50.8,32.3,30.24,East,90,2.3,2.3,49,0.00,CLR,,0.00,WeatherDisplay:10.37,2013-03-29 17:20:00,
2013-03-29 12:25:00,50.9,32.9,30.23,SE,134,4.6,4.6,50,0.00,CLR,,0.00,WeatherDisplay:10.37,2013-03-29 17:25:00,
2013-03-29 12:30:00,51.4,33.9,30.23,SE,135,11.5,11.5,51,0.00,CLR,,0.00,WeatherDisplay:10.37,2013-03-29 17:30:00,
2013-03-29 12:35:00,51.3,33.3,30.23,SE,125,3.0,10.0,50,0.00,CLR,,0.00,WeatherDisplay:10.37,2013-03-29 17:35:00,
2013-03-29 12:40:00,51.4,33.4,30.22,SE,126,3.5,3.5,50,0.00,CLR,,0.00,WeatherDisplay:10.37,2013-03-29 17:40:00,
2013-03-29 12:45:00,51.4,31.8,30.22,SE,126,4.6,4.6,47,0.00,CLR,,0.00,WeatherDisplay:10.37,2013-03-29 17:45:00,
2013-03-29 12:51:00,51.3,32.3,30.22,SE,126,2.3,2.3,48,0.00,CLR,,0.00,WeatherDisplay:10.37,2013-03-29 17:51:00,
2013-03-29 12:56:00,51.9,32.8,30.22,NE,42,9.2,9.2,48,0.00,CLR,,0.00,WeatherDisplay:10.37,2013-03-29 17:56:00,
2013-03-29 13:01:00,51.2,32.7,30.22,ENE,72,9.2,9.2,49,0.00,CLR,,0.00,WeatherDisplay:10.37,2013-03-29 18:01:00,
2013-03-29 13:06:00,51.5,33.5,30.22,NE,55,7.0,7.0,50,0.00,CLR,,0.00,WeatherDisplay:10.37,2013-03-29 18:06:00,
2013-03-29 13:11:00,51.5,33.0,30.21,NE,36,6.9,6.9,49,0.00,CLR,,0.00,WeatherDisplay:10.37,2013-03-29 18:11:00,
2013-03-29 13:16:00,51.6,32.5,30.21,NNE,25,6.9,6.9,48,0.00,CLR,,0.00,WeatherDisplay:10.37,2013-03-29 18:16:00,
2013-03-29 13:21:00,51.6,32.5,30.21,North,355,5.8,5.8,48,0.00,CLR,,0.00,WeatherDisplay:10.37,2013-03-29 18:21:00,
2013-03-29 13:26:00,51.9,31.7,30.21,North,360,5.8,5.8,46,0.00,CLR,,0.00,WeatherDisplay:10.37,2013-03-29 18:26:00,
2013-03-29 13:32:00,52.4,32.7,30.21,ENE,74,3.5,3.5,47,0.00,CLR,,0.00,WeatherDisplay:10.37,2013-03-29 18:32:00,
2013-03-29 13:37:00,53.1,33.9,30.21,ENE,74,1.2,1.2,48,0.00,CLR,,0.00,WeatherDisplay:10.37,2013-03-29 18:37:00,
2013-03-29 13:42:00,53.7,33.9,30.20,ENE,73,2.3,2.3,47,0.00,CLR,,0.00,WeatherDisplay:10.37,2013-03-29 18:42:00,
2013-03-29 13:47:00,54.3,33.9,30.20,North,355,6.9,6.9,46,0.00,CLR,,0.00,WeatherDisplay:10.37,2013-03-29 18:47:00,
2013-03-29 13:52:00,53.7,33.9,30.20,NNW,348,6.9,6.9,47,0.00,CLR,,0.00,WeatherDisplay:10.37,2013-03-29 18:52:00,
2013-03-29 13:57:00,54.0,34.7,30.20,NE,55,6.9,6.9,48,0.00,CLR,,0.00,WeatherDisplay:10.37,2013-03-29 18:57:00,
2013-03-29 14:02:00,54.1,34.3,30.20,NE,45,2.0,7.0,47,0.00,CLR,,0.00,WeatherDisplay:10.37,2013-03-29 19:02:00,
2013-03-29 14:07:00,54.2,34.4,30.20,ENE,63,0.0,4.0,47,0.00,CLR,,0.00,WeatherDisplay:10.37,2013-03-29 19:07:00,
2013-03-29 14:12:00,54.3,34.5,30.19,ENE,60,4.6,4.6,47,0.00,CLR,,0.00,WeatherDisplay:10.37,2013-03-29 19:12:00,
2013-03-29 14:17:00,54.4,34.6,30.19,ENE,68,2.0,7.0,47,0.00,CLR,,0.00,WeatherDisplay:10.37,2013-03-29 19:17:00,
2013-03-29 14:22:00,54.3,34.5,30.19,NE,42,9.2,9.2,47,0.00,CLR,,0.00,WeatherDisplay:10.37,2013-03-29 19:22:00,
2013-03-29 14:27:00,53.3,33.6,30.19,NE,41,9.2,9.2,47,0.00,CLR,,0.00,WeatherDisplay:10.37,2013-03-29 19:27:00,
2013-03-29 14:32:00,52.8,33.6,30.19,NE,49,9.2,9.2,48,0.00,CLR,,0.00,WeatherDisplay:10.37,2013-03-29 19:32:00,
2013-03-29 14:37:00,52.8,33.6,30.19,WNW,290,5.8,5.8,48,0.00,CLR,,0.00,WeatherDisplay:10.37,2013-03-29 19:37:00,
2013-03-29 14:42:00,53.5,34.3,30.19,NE,34,10.0,10.0,48,0.00,CLR,,0.00,WeatherDisplay:10.37,2013-03-29 19:42:00,
2013-03-29 14:47:00,53.5,34.3,30.18,NE,55,8.1,8.1,48,0.00,CLR,,0.00,WeatherDisplay:10.37,2013-03-29 19:47:00,
2013-03-29 14:52:00,54.2,34.4,30.18,NE,50,2.3,2.3,47,0.00,CLR,,0.00,WeatherDisplay:10.37,2013-03-29 19:52:00,
2013-03-29 14:57:00,54.3,33.9,30.18,NNE,20,9.2,9.2,46,0.00,CLR,,0.00,WeatherDisplay:10.37,2013-03-29 19:57:00,
2013-03-29 15:02:00,53.7,33.9,30.18,North,5,3.5,3.5,47,0.00,CLR,,0.00,WeatherDisplay:10.37,2013-03-29 20:02:00,
2013-03-29 15:07:00,54.3,34.5,30.18,NE,54,7.0,7.3,47,0.00,CLR,,0.00,WeatherDisplay:10.37,2013-03-29 20:07:00,
2013-03-29 15:12:00,54.6,34.2,30.18,ENE,64,9.2,9.2,46,0.00,CLR,,0.00,WeatherDisplay:10.37,2013-03-29 20:12:00,
2013-03-29 15:17:00,54.6,34.2,30.17,ESE,103,5.8,5.8,46,0.00,CLR,,0.00,WeatherDisplay:10.37,2013-03-29 20:17:00,
2013-03-29 15:23:00,55.1,34.7,30.17,NNE,26,10.4,10.4,46,0.00,CLR,,0.00,WeatherDisplay:10.37,2013-03-29 20:23:00,
2013-03-29 15:28:00,54.3,34.5,30.17,NE,42,9.2,9.2,47,0.00,CLR,,0.00,WeatherDisplay:10.37,2013-03-29 20:28:00,
2013-03-29 15:33:00,54.2,34.9,30.17,NNE,30,4.6,4.6,48,0.00,CLR,,0.00,WeatherDisplay:10.37,2013-03-29 20:33:00,
2013-03-29 15:38:00,54.0,34.2,30.17,NE,55,11.5,11.5,47,0.00,CLR,,0.00,WeatherDisplay:10.37,2013-03-29 20:38:00,
2013-03-29 15:43:00,53.5,34.3,30.17,NE,44,7.0,7.0,48,0.00,CLR,,0.00,WeatherDisplay:10.37,2013-03-29 20:43:00,
2013-03-29 15:48:00,53.8,35.1,30.17,NE,47,3.5,3.5,49,0.00,CLR,,0.00,WeatherDisplay:10.37,2013-03-29 20:48:00,
2013-03-29 15:53:00,54.1,34.8,30.17,NE,47,1.2,1.2,48,0.00,CLR,,0.00,WeatherDisplay:10.37,2013-03-29 20:53:00,
2013-03-29 15:58:00,54.4,35.1,30.17,NE,49,4.6,4.6,48,0.00,CLR,,0.00,WeatherDisplay:10.37,2013-03-29 20:58:00,
2013-03-29 16:03:00,54.0,34.2,30.16,NE,53,3.5,3.5,47,0.00,CLR,,0.00,WeatherDisplay:10.37,2013-03-29 21:03:00,
2013-03-29 16:08:00,53.9,34.1,30.16,NE,55,3.5,3.5,47,0.00,CLR,,0.00,WeatherDisplay:10.37,2013-03-29 21:08:00,
2013-03-29 16:13:00,53.8,34.0,30.16,NE,40,11.5,11.5,47,0.00,CLR,,0.00,WeatherDisplay:10.37,2013-03-29 21:13:00,
2013-03-29 16:18:00,53.2,34.0,30.16,NE,50,8.1,8.1,48,0.00,CLR,,0.00,WeatherDisplay:10.37,2013-03-29 21:18:00,
2013-03-29 16:23:00,53.2,34.0,30.16,NE,51,3.5,3.5,48,0.00,CLR,,0.00,WeatherDisplay:10.37,2013-03-29 21:23:00,
2013-03-29 16:28:00,53.5,34.3,30.16,NE,41,5.8,5.8,48,0.00,CLR,,0.00,WeatherDisplay:10.37,2013-03-29 21:28:00,
2013-03-29 16:33:00,53.5,34.3,30.16,NE,47,6.9,6.9,48,0.00,CLR,,0.00,WeatherDisplay:10.37,2013-03-29 21:33:00,
2013-03-29 16:38:00,53.7,34.5,30.16,NE,51,6.9,6.9,48,0.00,CLR,,0.00,WeatherDisplay:10.37,2013-03-29 21:38:00,
2013-03-29 16:43:00,53.8,35.1,30.15,NE,49,7.0,7.0,49,0.00,CLR,,0.00,WeatherDisplay:10.37,2013-03-29 21:43:00,
2013-03-29 16:48:00,53.7,35.0,30.16,NE,48,5.8,5.8,49,0.00,CLR,,0.00,WeatherDisplay:10.37,2013-03-29 21:48:00,
2013-03-29 16:53:00,53.8,35.1,30.16,NE,43,5.0,5.0,49,0.00,CLR,,0.00,WeatherDisplay:10.37,2013-03-29 21:53:00,
2013-03-29 16:58:00,53.7,35.0,30.16,NE,39,5.8,5.8,49,0.00,CLR,,0.00,WeatherDisplay:10.37,2013-03-29 21:58:00,
2013-03-29 17:03:00,53.7,34.5,30.15,North,355,6.9,6.9,48,0.00,CLR,,0.00,WeatherDisplay:10.37,2013-03-29 22:03:00,
2013-03-29 17:08:00,53.9,35.2,30.16,NE,53,6.9,6.9,49,0.00,CLR,,0.00,WeatherDisplay:10.37,2013-03-29 22:08:00,
2013-03-29 17:13:00,53.6,34.9,30.16,NNE,31,6.9,6.9,49,0.00,CLR,,0.00,WeatherDisplay:10.37,2013-03-29 22:13:00,
2013-03-29 17:18:00,53.6,34.9,30.16,ENE,58,5.8,5.8,49,0.00,CLR,,0.00,WeatherDisplay:10.37,2013-03-29 22:18:00,
2013-03-29 17:23:00,53.6,34.9,30.16,NNE,23,8.1,8.1,49,0.00,CLR,,0.00,WeatherDisplay:10.37,2013-03-29 22:23:00,
2013-03-29 17:28:00,53.4,35.2,30.16,North,355,6.0,6.0,50,0.00,CLR,,0.00,WeatherDisplay:10.37,2013-03-29 22:28:00,
2013-03-29 17:33:00,53.7,35.5,30.16,North,351,3.5,3.5,50,0.00,CLR,,0.00,WeatherDisplay:10.37,2013-03-29 22:33:00,
2013-03-29 17:38:00,53.8,35.1,30.16,North,360,3.5,3.5,49,0.00,CLR,,0.00,WeatherDisplay:10.37,2013-03-29 22:38:00,
2013-03-29 17:43:00,53.9,35.7,30.16,North,360,4.0,4.0,50,0.00,CLR,,0.00,WeatherDisplay:10.37,2013-03-29 22:43:00,
2013-03-29 17:48:00,53.9,35.2,30.16,North,360,6.9,6.9,49,0.00,CLR,,0.00,WeatherDisplay:10.37,2013-03-29 22:48:00,
2013-03-29 17:54:00,53.7,35.5,30.16,NE,38,3.5,3.8,50,0.00,CLR,,0.00,WeatherDisplay:10.37,2013-03-29 22:54:00,
2013-03-29 17:59:00,53.5,35.8,30.16,NE,34,10.4,10.4,51,0.00,CLR,,0.00,WeatherDisplay:10.37,2013-03-29 22:59:00,
2013-03-29 18:04:00,53.2,35.5,30.16,NNE,28,10.4,10.4,51,0.00,CLR,,0.00,WeatherDisplay:10.37,2013-03-29 23:04:00,
2013-03-29 18:09:00,53.0,35.8,30.16,NE,53,8.1,8.1,52,0.00,CLR,,0.00,WeatherDisplay:10.37,2013-03-29 23:09:00,
2013-03-29 18:14:00,52.8,35.6,30.16,NE,49,6.0,6.0,52,0.00,CLR,,0.00,WeatherDisplay:10.37,2013-03-29 23:14:00,
2013-03-29 18:19:00,52.7,35.6,30.16,NE,44,9.0,9.0,52,0.00,CLR,,0.00,WeatherDisplay:10.37,2013-03-29 23:19:00,
2013-03-29 18:24:00,52.7,35.6,30.16,NE,44,9.0,9.0,52,0.00,CLR,,0.00,WeatherDisplay:10.37,2013-03-29 23:24:00,
2013-03-29 18:29:00,52.5,35.8,30.16,NE,44,7.0,7.0,53,0.00,CLR,,0.00,WeatherDisplay:10.37,2013-03-29 23:29:00,
2013-03-29 18:34:00,52.5,35.8,30.16,NE,47,9.0,9.0,53,0.00,CLR,,0.00,WeatherDisplay:10.37,2013-03-29 23:34:00,
2013-03-29 18:39:00,52.4,35.3,30.17,NE,45,10.0,10.0,52,0.00,CLR,,0.00,WeatherDisplay:10.37,2013-03-29 23:39:00,
2013-03-29 18:44:00,52.3,35.2,30.16,NE,48,10.4,10.4,52,0.00,CLR,,0.00,WeatherDisplay:10.37,2013-03-29 23:44:00,
2013-03-29 18:49:00,52.2,35.6,30.16,NE,43,9.2,9.2,53,0.00,CLR,,0.00,WeatherDisplay:10.37,2013-03-29 23:49:00,
2013-03-29 18:54:00,52.2,36.0,30.17,NE,50,8.0,8.0,54,0.00,CLR,,0.00,WeatherDisplay:10.37,2013-03-29 23:54:00,
2013-03-29 18:59:00,52.1,35.9,30.16,NE,47,8.1,8.1,54,0.00,CLR,,0.00,WeatherDisplay:10.37,2013-03-29 23:59:00,
2013-03-29 19:04:00,52.0,35.9,30.16,NE,44,5.8,5.8,54,0.00,CLR,,0.00,WeatherDisplay:10.37,2013-03-30 00:04:00,
2013-03-29 19:09:00,51.9,35.8,30.16,NE,47,11.5,11.5,54,0.00,CLR,,0.00,WeatherDisplay:10.37,2013-03-30 00:09:00,
2013-03-29 19:14:00,51.8,36.1,30.16,NE,47,8.1,8.1,55,0.00,CLR,,0.00,WeatherDisplay:10.37,2013-03-30 00:14:00,
2013-03-29 19:19:00,51.7,36.5,30.17,NE,49,6.9,6.9,56,0.00,CLR,,0.00,WeatherDisplay:10.37,2013-03-30 00:19:00,
2013-03-29 19:24:00,51.5,36.3,30.16,NE,46,7.0,7.0,56,0.00,CLR,,0.00,WeatherDisplay:10.37,2013-03-30 00:24:00,
2013-03-29 19:29:00,51.5,36.3,30.16,NE,46,6.9,6.9,56,0.00,CLR,,0.00,WeatherDisplay:10.37,2013-03-30 00:29:00,
2013-03-29 19:34:00,51.4,36.2,30.16,NE,45,5.8,5.8,56,0.00,CLR,,0.00,WeatherDisplay:10.37,2013-03-30 00:34:00,
2013-03-29 19:39:00,51.3,36.1,30.16,NE,45,5.8,5.8,56,0.00,CLR,,0.00,WeatherDisplay:10.37,2013-03-30 00:39:00,
2013-03-29 19:44:00,51.2,36.0,30.16,NE,44,3.5,3.5,56,0.00,CLR,,0.00,WeatherDisplay:10.37,2013-03-30 00:44:00,
2013-03-29 19:49:00,50.9,36.2,30.17,NE,44,3.5,3.5,57,0.00,CLR,,0.00,WeatherDisplay:10.37,2013-03-30 00:49:00,
2013-03-29 19:54:00,50.7,36.5,30.17,NE,45,3.0,3.0,58,0.00,CLR,,0.00,WeatherDisplay:10.37,2013-03-30 00:54:00,
2013-03-29 19:59:00,50.6,36.8,30.17,NE,44,3.5,3.5,59,0.00,CLR,,0.00,WeatherDisplay:10.37,2013-03-30 00:59:00,
2013-03-29 20:04:00,50.4,36.6,30.17,NE,44,0.0,0.0,59,0.00,CLR,,0.00,WeatherDisplay:10.37,2013-03-30 01:04:00,
2013-03-29 20:09:00,50.4,36.2,30.17,NE,45,3.5,3.5,58,0.00,CLR,,0.00,WeatherDisplay:10.37,2013-03-30 01:09:00,
2013-03-29 20:14:00,50.3,36.9,30.17,NE,46,2.3,2.3,60,0.00,CLR,,0.00,WeatherDisplay:10.37,2013-03-30 01:14:00,
2013-03-29 20:19:00,50.2,36.8,30.17,NE,45,1.0,1.0,60,0.00,CLR,,0.00,WeatherDisplay:10.37,2013-03-30 01:19:00,
2013-03-29 20:24:00,50.0,36.7,30.17,NE,45,2.3,2.3,60,0.00,CLR,,0.00,WeatherDisplay:10.37,2013-03-30 01:24:00,
2013-03-29 20:29:00,49.9,36.6,30.17,NE,45,0.0,0.0,60,0.00,CLR,,0.00,WeatherDisplay:10.37,2013-03-30 01:29:00,
2013-03-29 20:35:00,49.7,36.8,30.18,NE,45,0.0,1.0,61,0.00,CLR,,0.00,WeatherDisplay:10.37,2013-03-30 01:35:00,
2013-03-29 20:40:00,49.5,36.6,30.17,NE,44,2.3,2.3,61,0.00,CLR,,0.00,WeatherDisplay:10.37,2013-03-30 01:40:00,
2013-03-29 20:45:00,49.3,36.4,30.18,NE,45,2.3,2.3,61,0.00,CLR,,0.00,WeatherDisplay:10.37,2013-03-30 01:45:00,
2013-03-29 20:50:00,49.1,36.2,30.18,NE,46,2.3,2.3,61,0.00,CLR,,0.00,WeatherDisplay:10.37,2013-03-30 01:50:00,
2013-03-29 20:55:00,49.1,36.2,30.18,NE,45,2.3,2.3,61,0.00,CLR,,0.00,WeatherDisplay:10.37,2013-03-30 01:55:00,
2013-03-29 21:00:00,49.1,36.2,30.18,NE,45,2.3,2.3,61,0.00,CLR,,0.00,WeatherDisplay:10.37,2013-03-30 02:00:00,
2013-03-29 21:05:00,49.0,36.1,30.18,NE,45,2.3,2.3,61,0.00,CLR,,0.00,WeatherDisplay:10.37,2013-03-30 02:05:00,
2013-03-29 21:10:00,48.9,36.0,30.18,NE,46,3.5,3.5,61,0.00,CLR,,0.00,WeatherDisplay:10.37,2013-03-30 02:10:00,
2013-03-29 21:15:00,48.9,36.0,30.18,NE,46,3.5,3.5,61,0.00,CLR,,0.00,WeatherDisplay:10.37,2013-03-30 02:15:00,
2013-03-29 21:20:00,48.8,35.9,30.18,NE,44,3.5,3.5,61,0.00,CLR,,0.00,WeatherDisplay:10.37,2013-03-30 02:20:00,
2013-03-29 21:25:00,48.6,36.2,30.18,NE,45,2.3,2.3,62,0.00,CLR,,0.00,WeatherDisplay:10.37,2013-03-30 02:25:00,
2013-03-29 21:30:00,48.5,36.1,30.18,NE,44,1.2,1.2,62,0.00,CLR,,0.00,WeatherDisplay:10.37,2013-03-30 02:30:00,
2013-03-29 21:35:00,48.3,36.3,30.18,NE,44,0.0,0.0,63,0.00,CLR,,0.00,WeatherDisplay:10.37,2013-03-30 02:35:00,
2013-03-29 21:40:00,48.1,36.5,30.18,NE,45,0.0,0.0,64,0.00,CLR,,0.00,WeatherDisplay:10.37,2013-03-30 02:40:00,
2013-03-29 21:45:00,47.9,36.7,30.18,NE,45,0.0,0.0,65,0.00,CLR,,0.00,WeatherDisplay:10.37,2013-03-30 02:45:00,
2013-03-29 21:50:00,47.5,36.3,30.18,NE,45,2.0,2.0,65,0.00,CLR,,0.00,WeatherDisplay:10.37,2013-03-30 02:50:00,
2013-03-29 21:55:00,47.5,35.5,30.18,NE,44,2.3,2.3,63,0.00,CLR,,0.00,WeatherDisplay:10.37,2013-03-30 02:55:00,
2013-03-29 22:00:00,47.8,35.8,30.18,NE,45,1.2,0.0,63,0.00,CLR,,0.00,WeatherDisplay:10.37,2013-03-30 03:00:00,
2013-03-29 22:05:00,47.6,36.4,30.18,NE,45,2.3,2.3,65,0.00,CLR,,0.00,WeatherDisplay:10.37,2013-03-30 03:05:00,
2013-03-29 22:10:00,47.0,36.6,30.18,NE,44,3.5,3.5,67,0.00,CLR,,0.00,WeatherDisplay:10.37,2013-03-30 03:10:00,
2013-03-29 22:15:00,46.8,36.8,30.18,NE,45,2.3,2.3,68,0.00,CLR,,0.00,WeatherDisplay:10.37,2013-03-30 03:15:00,
2013-03-29 22:20:00,46.3,36.3,30.18,NE,44,2.0,2.0,68,0.00,CLR,,0.00,WeatherDisplay:10.37,2013-03-30 03:20:00,
2013-03-29 22:25:00,45.5,36.3,30.18,NE,44,3.5,3.5,70,0.00,CLR,,0.00,WeatherDisplay:10.37,2013-03-30 03:25:00,
2013-03-29 22:30:00,44.6,35.8,30.18,NE,45,1.2,0.0,71,0.00,CLR,,0.00,WeatherDisplay:10.37,2013-03-30 03:30:00,
2013-03-29 22:35:00,44.1,35.6,30.18,NE,45,1.2,0.0,72,0.00,CLR,,0.00,WeatherDisplay:10.37,2013-03-30 03:35:00,
2013-03-29 22:40:00,43.7,35.6,30.18,NE,44,2.3,2.3,73,0.00,CLR,,0.00,WeatherDisplay:10.37,2013-03-30 03:40:00,
2013-03-29 22:45:00,44.0,35.6,30.18,NE,45,3.5,3.5,72,0.00,CLR,,0.00,WeatherDisplay:10.37,2013-03-30 03:45:00,
2013-03-29 22:50:00,44.3,35.8,30.18,NE,45,0.0,0.0,72,0.00,CLR,,0.00,WeatherDisplay:10.37,2013-03-30 03:50:00,
2013-03-29 22:55:00,44.2,35.4,30.18,NE,45,3.5,3.5,71,0.00,CLR,,0.00,WeatherDisplay:10.37,2013-03-30 03:55:00,
2013-03-29 23:00:00,44.5,35.3,30.18,NE,44,2.3,2.3,70,0.00,CLR,,0.00,WeatherDisplay:10.37,2013-03-30 04:00:00,
2013-03-29 23:05:00,44.8,35.2,30.18,NE,44,0.0,0.0,69,0.00,CLR,,0.00,WeatherDisplay:10.37,2013-03-30 04:05:00,
2013-03-29 23:10:00,44.7,35.5,30.18,NE,46,0.0,0.0,70,0.00,CLR,,0.00,WeatherDisplay:10.37,2013-03-30 04:10:00,
2013-03-29 23:15:00,44.2,35.7,30.18,NE,44,0.0,0.0,72,0.00,CLR,,0.00,WeatherDisplay:10.37,2013-03-30 04:15:00,
2013-03-29 23:20:00,43.8,35.7,30.18,NE,44,0.0,0.0,73,0.00,CLR,,0.00,WeatherDisplay:10.37,2013-03-30 04:20:00,
2013-03-29 23:25:00,43.5,35.8,30.18,NE,44,0.0,0.0,74,0.00,CLR,,0.00,WeatherDisplay:10.37,2013-03-30 04:25:00,
2013-03-29 23:30:00,43.3,35.6,30.17,NE,46,0.0,0.0,74,0.00,CLR,,0.00,WeatherDisplay:10.37,2013-03-30 04:30:00,
2013-03-29 23:35:00,43.3,35.6,30.17,NE,45,0.0,0.0,74,0.00,CLR,,0.00,WeatherDisplay:10.37,2013-03-30 04:35:00,
2013-03-29 23:40:00,43.5,35.8,30.17,NE,45,0.0,0.0,74,0.00,CLR,,0.00,WeatherDisplay:10.37,2013-03-30 04:40:00,
2013-03-29 23:45:00,43.3,35.9,30.17,NE,44,0.0,0.0,75,0.00,CLR,,0.00,WeatherDisplay:10.37,2013-03-30 04:45:00,
2013-03-29 23:50:00,43.3,35.6,30.17,NE,44,2.3,2.3,74,0.00,CLR,,0.00,WeatherDisplay:10.37,2013-03-30 04:50:00,
2013-03-29 23:55:00,43.8,35.7,30.17,NE,45,1.0,2.0,73,0.00,CLR,,0.00,WeatherDisplay:10.37,2013-03-30 04:55:00,